createdAt,value
2023-05-01T00:00:05.652Z,11.10
2023-05-01T04:02:48.995Z,15.60
2023-05-01T04:05:15.977Z,16.27
2023-05-01T04:07:42.825Z,19.05
2023-05-01T04:10:09.921Z,17.00
2023-05-01T04:12:36.901Z,19.42
2023-05-01T04:15:04.159Z,14.05
2023-05-01T04:17:32.033Z,18.85
2023-05-01T04:19:59.056Z,18.08
2023-05-01T04:22:25.945Z,17.95
2023-05-01T04:24:52.956Z,14.13
2023-05-01T04:27:19.660Z,14.35
2023-05-01T04:29:46.571Z,15.20
2023-05-01T04:32:13.652Z,18.92
2023-05-01T04:34:40.374Z,14.18
2023-05-01T04:37:09.033Z,12.55
2023-05-01T04:39:36.459Z,11.93
2023-05-01T04:42:04.573Z,13.15
2023-05-01T04:44:34.173Z,13.77
2023-05-01T04:47:05.728Z,11.43
2023-05-01T04:49:32.760Z,10.88
2023-05-01T04:51:59.512Z,10.05
2023-05-01T04:54:26.275Z,8.02
2023-05-01T04:56:53.037Z,9.40
2023-05-01T04:59:19.714Z,9.30
2023-05-01T05:01:46.554Z,8.98
2023-05-01T05:04:13.540Z,7.22
2023-05-01T05:06:40.330Z,8.57
2023-05-01T05:09:07.137Z,4.93
2023-05-01T05:11:33.791Z,9.68
2023-05-01T05:14:00.530Z,10.52
2023-05-01T05:16:27.299Z,13.23
2023-05-01T05:18:56.730Z,10.30
2023-05-01T05:21:23.533Z,5.95
2023-05-01T05:23:50.829Z,6.13
2023-05-01T05:26:18.104Z,3.60
2023-05-01T05:28:45.337Z,4.47
2023-05-01T05:31:12.058Z,11.57
2023-05-01T05:33:38.900Z,6.80
2023-05-01T05:36:05.815Z,16.52
2023-05-01T05:38:32.803Z,7.30
2023-05-01T05:40:59.595Z,4.40
2023-05-01T05:43:28.095Z,5.18
2023-05-01T05:46:01.652Z,3.75
2023-05-01T05:48:28.860Z,5.57
2023-05-01T05:50:56.122Z,8.13
2023-05-01T05:53:25.581Z,4.25
2023-05-01T05:55:52.914Z,4.05
2023-05-01T05:58:23.353Z,6.78
2023-05-01T06:00:52.130Z,2.35
2023-05-01T06:03:19.434Z,4.70
2023-05-01T06:05:46.360Z,3.58
2023-05-01T06:08:14.434Z,5.93
2023-05-01T06:10:43.526Z,4.57
2023-05-01T06:13:13.220Z,5.32
2023-05-01T06:15:40.986Z,5.07
2023-05-01T06:18:08.143Z,4.22
2023-05-01T06:20:35.103Z,5.93
2023-05-01T06:23:01.858Z,4.00
2023-05-01T06:25:28.828Z,6.57
2023-05-01T06:27:55.771Z,6.22
2023-05-01T06:30:22.566Z,6.80
2023-05-01T06:32:49.380Z,5.57
2023-05-01T06:35:16.315Z,9.25
2023-05-01T06:37:43.134Z,5.43
2023-05-01T06:40:10.531Z,6.32
2023-05-01T06:42:40.591Z,4.70
2023-05-01T06:45:08.582Z,4.45
2023-05-01T06:47:35.767Z,5.43
2023-05-01T06:50:05.528Z,6.25
2023-05-01T06:52:32.741Z,13.35
2023-05-01T06:54:59.582Z,7.68
2023-05-01T06:57:26.391Z,3.92
2023-05-01T06:59:54.106Z,4.60
2023-05-01T07:02:21.247Z,4.07
2023-05-01T07:04:48.217Z,8.38
2023-05-01T07:07:15.036Z,5.13
2023-05-01T07:09:41.756Z,7.35
2023-05-01T07:12:08.779Z,7.63
2023-05-01T07:14:36.169Z,2.95
2023-05-01T07:17:03.487Z,5.80
2023-05-01T07:19:30.265Z,8.05
2023-05-01T07:21:57.036Z,6.50
2023-05-01T07:24:23.801Z,6.55
2023-05-01T07:26:51.387Z,8.95
2023-05-01T07:29:18.188Z,7.45
2023-05-01T07:31:46.088Z,5.00
2023-05-01T07:34:12.887Z,10.98
2023-05-01T07:36:39.732Z,9.75
2023-05-01T07:39:07.357Z,9.98
2023-05-01T07:41:34.084Z,4.28
2023-05-01T07:44:01.185Z,3.83
2023-05-01T07:46:28.115Z,15.32
2023-05-01T07:48:54.890Z,2.33
2023-05-01T07:51:21.761Z,4.75
2023-05-01T07:53:49.400Z,5.68
2023-05-01T07:56:16.399Z,3.83
2023-05-01T07:58:44.009Z,5.38
2023-05-01T08:01:10.994Z,11.25
2023-05-01T08:03:41.004Z,5.05
2023-05-01T08:06:10.257Z,7.55
2023-05-01T08:08:36.995Z,5.78
2023-05-01T08:11:04.011Z,7.65
2023-05-01T08:13:30.963Z,3.75
2023-05-01T08:16:04.660Z,4.13
2023-05-01T08:18:31.804Z,7.15
2023-05-01T08:20:58.643Z,8.95
2023-05-01T08:23:25.526Z,6.20
2023-05-01T08:25:52.898Z,9.40
2023-05-01T08:28:22.944Z,3.97
2023-05-01T08:30:49.910Z,5.70
2023-05-01T08:33:17.035Z,5.88
2023-05-01T08:35:43.771Z,7.50
2023-05-01T08:38:11.726Z,8.38
2023-05-01T08:40:40.958Z,8.32
2023-05-01T08:45:48.259Z,8.07
2023-05-01T08:48:18.703Z,8.75
2023-05-01T08:50:46.971Z,20.05
2023-05-01T08:53:16.110Z,11.73
2023-05-01T08:55:46.528Z,4.22
2023-05-01T08:58:14.788Z,6.90
2023-05-01T09:00:42.511Z,5.80
2023-05-01T09:03:12.823Z,5.55
2023-05-01T09:05:40.042Z,4.75
2023-05-01T09:08:07.153Z,5.90
2023-05-01T09:10:38.982Z,4.72
2023-05-01T09:13:07.320Z,7.78
2023-05-01T09:15:34.053Z,4.90
2023-05-01T09:18:03.610Z,8.73
2023-05-01T09:20:32.573Z,3.20
2023-05-01T09:22:59.381Z,4.13
2023-05-01T09:25:26.238Z,5.47
2023-05-01T09:27:53.276Z,7.50
2023-05-01T09:30:39.511Z,5.15
2023-05-01T09:33:11.749Z,2.95
2023-05-01T09:35:59.507Z,5.28
2023-05-01T09:38:27.851Z,4.85
2023-05-01T09:41:03.178Z,7.88
2023-05-01T09:43:31.514Z,9.27
2023-05-01T09:46:01.149Z,4.55
2023-05-01T09:48:28.546Z,11.98
2023-05-01T09:50:55.232Z,3.97
2023-05-01T09:53:40.733Z,5.65
2023-05-01T09:56:07.788Z,7.50
2023-05-01T09:58:34.435Z,5.13
2023-05-01T10:01:01.797Z,7.95
2023-05-01T10:03:28.824Z,5.68
2023-05-01T10:05:56.991Z,5.68
2023-05-01T10:08:24.141Z,3.28
2023-05-01T10:11:05.235Z,4.35
2023-05-01T10:13:32.072Z,7.55
2023-05-01T10:16:01.445Z,7.20
2023-05-01T10:18:30.609Z,3.15
2023-05-01T10:20:57.519Z,6.28
2023-05-01T10:23:25.456Z,7.75
2023-05-01T10:25:53.704Z,8.77
2023-05-01T10:28:21.736Z,8.57
2023-05-01T10:30:49.436Z,3.90
2023-05-01T10:33:16.545Z,6.05
2023-05-01T10:35:49.183Z,6.15
2023-05-01T10:38:35.400Z,6.55
2023-05-01T10:41:02.200Z,13.70
2023-05-01T10:43:30.772Z,4.10
2023-05-01T10:46:19.318Z,9.45
2023-05-01T10:48:46.050Z,3.83
2023-05-01T10:51:28.459Z,3.40
2023-05-01T10:54:13.883Z,5.85
2023-05-01T10:56:44.177Z,6.13
2023-05-01T10:59:12.777Z,9.38
2023-05-01T11:01:47.810Z,4.85
2023-05-01T11:04:21.684Z,6.07
2023-05-01T11:07:10.839Z,5.50
2023-05-01T11:09:38.050Z,6.15
2023-05-01T11:12:05.919Z,3.70
2023-05-01T11:14:54.803Z,11.70
2023-05-01T11:17:40.240Z,3.25
2023-05-01T11:20:08.480Z,7.20
2023-05-01T11:22:36.291Z,7.93
2023-05-01T11:25:04.781Z,5.00
2023-05-01T11:27:31.911Z,4.97
2023-05-01T11:30:01.934Z,4.50
2023-05-01T11:32:30.207Z,3.78
2023-05-01T11:34:57.864Z,2.67
2023-05-01T11:37:46.861Z,5.60
2023-05-01T11:40:22.612Z,4.50
2023-05-01T11:42:50.794Z,1.70
2023-05-01T11:45:19.878Z,6.65
2023-05-01T11:47:47.178Z,2.03
2023-05-01T11:50:14.079Z,3.03
2023-05-01T11:52:49.644Z,2.72
2023-05-01T11:55:16.830Z,1.70
2023-05-01T11:57:52.622Z,3.35
2023-05-01T12:00:34.052Z,2.42
2023-05-01T12:03:06.761Z,2.20
2023-05-01T12:05:36.877Z,1.90
2023-05-01T12:08:23.450Z,2.38
2023-05-01T12:10:57.965Z,2.45
2023-05-01T12:13:26.083Z,1.40
2023-05-01T12:15:54.747Z,3.40
2023-05-01T12:18:21.961Z,2.50
2023-05-01T12:20:53.397Z,2.47
2023-05-01T12:23:31.538Z,5.93
2023-05-01T12:25:58.402Z,2.83
2023-05-01T12:28:27.724Z,2.92
2023-05-01T12:31:03.468Z,4.03
2023-05-01T12:33:31.947Z,1.30
2023-05-01T12:36:09.888Z,2.63
2023-05-01T12:38:36.885Z,1.48
2023-05-01T12:41:07.088Z,4.78
2023-05-01T12:43:35.785Z,1.92
2023-05-01T12:46:04.590Z,2.30
2023-05-01T12:48:34.339Z,1.50
2023-05-01T12:51:01.584Z,2.83
2023-05-01T12:53:29.160Z,2.50
2023-05-01T12:55:57.777Z,3.92
2023-05-01T12:58:35.081Z,5.57
2023-05-01T13:01:01.853Z,1.60
2023-05-01T13:03:29.813Z,1.90
2023-05-01T13:05:59.268Z,1.45
2023-05-01T13:08:35.303Z,2.30
2023-05-01T13:11:16.721Z,2.30
2023-05-01T13:13:47.392Z,1.45
2023-05-01T13:16:16.225Z,2.17
2023-05-01T13:18:51.355Z,3.50
2023-05-01T13:21:25.484Z,2.65
2023-05-01T13:24:00.681Z,2.28
2023-05-01T13:26:33.086Z,2.05
2023-05-01T13:31:28.588Z,1.52
2023-05-01T13:33:57.401Z,1.23
2023-05-01T13:36:26.963Z,1.05
2023-05-01T13:38:56.873Z,2.67
2023-05-01T13:41:26.139Z,1.38
2023-05-01T13:43:54.751Z,1.33
2023-05-01T13:46:23.430Z,1.45
2023-05-01T13:48:50.478Z,2.13
2023-05-01T13:51:22.104Z,2.75
2023-05-01T13:53:48.971Z,0.90
2023-05-01T13:56:16.338Z,2.45
2023-05-01T13:58:43.067Z,1.33
2023-05-01T14:01:20.927Z,3.30
2023-05-01T14:03:49.022Z,1.13
2023-05-01T14:06:18.400Z,1.73
2023-05-01T14:08:46.952Z,1.33
2023-05-01T14:11:15.112Z,1.08
2023-05-01T14:13:46.632Z,1.02
2023-05-01T14:16:27.913Z,1.97
2023-05-01T14:18:57.306Z,0.85
2023-05-01T14:21:27.295Z,4.57
2023-05-01T14:23:55.161Z,1.02
2023-05-01T14:26:23.873Z,2.35
2023-05-01T14:28:50.833Z,2.67
2023-05-01T14:31:29.481Z,0.70
2023-05-01T14:33:58.505Z,1.00
2023-05-01T14:36:26.693Z,3.45
2023-05-01T14:38:56.568Z,0.80
2023-05-01T14:41:23.254Z,2.28
2023-05-01T14:43:53.573Z,4.30
2023-05-01T14:46:34.296Z,1.48
2023-05-01T14:49:01.988Z,1.00
2023-05-01T14:51:31.997Z,1.10
2023-05-01T14:53:59.625Z,1.83
2023-05-01T14:56:26.371Z,0.95
2023-05-01T14:58:53.125Z,1.77
2023-05-01T15:01:20.195Z,1.63
2023-05-01T15:03:47.322Z,5.28
2023-05-01T15:06:14.468Z,0.60
2023-05-01T15:08:41.704Z,0.90
2023-05-01T15:11:08.824Z,0.70
2023-05-01T15:13:36.334Z,1.67
2023-05-01T15:16:03.180Z,1.40
2023-05-01T15:18:29.930Z,2.15
2023-05-01T15:20:56.633Z,0.60
2023-05-01T15:23:25.063Z,3.30
2023-05-01T15:25:51.814Z,3.10
2023-05-01T15:28:18.568Z,1.63
2023-05-01T15:30:47.085Z,2.13
2023-05-01T15:33:17.117Z,1.02
2023-05-01T15:35:46.726Z,0.38
2023-05-01T15:38:13.572Z,0.38
2023-05-01T15:40:43.235Z,3.10
2023-05-01T15:43:09.900Z,0.63
2023-05-01T15:45:42.591Z,1.58
2023-05-01T15:48:11.124Z,2.78
2023-05-01T15:50:37.966Z,1.52
2023-05-01T15:53:04.763Z,0.77
2023-05-01T15:55:31.674Z,0.50
2023-05-01T15:57:58.668Z,0.90
2023-05-01T16:00:25.838Z,1.00
2023-05-01T16:02:52.838Z,1.40
2023-05-01T16:05:24.616Z,1.08
2023-05-01T16:07:56.134Z,0.60
2023-05-01T16:10:24.955Z,1.90
2023-05-01T16:12:53.580Z,1.48
2023-05-01T16:15:23.405Z,2.25
2023-05-01T16:17:51.455Z,1.20
2023-05-01T16:20:18.349Z,0.98
2023-05-01T16:22:45.288Z,2.38
2023-05-01T16:25:12.456Z,1.98
2023-05-01T16:27:44.202Z,1.33
2023-05-01T16:30:14.314Z,2.17
2023-05-01T16:32:41.871Z,1.92
2023-05-01T16:35:16.614Z,1.30
2023-05-01T16:37:43.422Z,11.25
2023-05-01T16:40:17.060Z,4.20
2023-05-01T16:42:50.689Z,2.67
2023-05-01T16:45:17.868Z,2.80
2023-05-01T16:47:44.622Z,4.20
2023-05-01T16:50:12.590Z,1.95
2023-05-01T16:52:39.750Z,3.50
2023-05-01T16:55:07.388Z,2.92
2023-05-01T16:57:34.936Z,3.08
2023-05-01T17:00:02.057Z,1.98
2023-05-01T17:02:29.452Z,2.50
2023-05-01T17:04:56.152Z,0.88
2023-05-01T17:07:23.937Z,1.20
2023-05-01T17:09:50.917Z,1.30
2023-05-01T17:12:17.772Z,2.33
2023-05-01T17:14:44.515Z,1.10
2023-05-01T17:17:11.259Z,1.48
2023-05-01T17:19:41.521Z,1.60
2023-05-01T17:22:08.294Z,2.17
2023-05-01T17:24:36.789Z,1.33
2023-05-01T17:27:03.766Z,1.73
2023-05-01T17:29:30.707Z,1.50
2023-05-01T17:31:57.485Z,1.92
2023-05-01T17:34:24.364Z,1.90
2023-05-01T17:36:51.118Z,1.77
2023-05-01T17:39:18.772Z,3.72
2023-05-01T17:41:45.644Z,1.63
2023-05-01T17:44:12.338Z,1.65
2023-05-01T17:46:39.383Z,2.47
2023-05-01T17:49:07.419Z,1.77
2023-05-01T17:51:34.275Z,2.33
2023-05-01T17:54:01.685Z,1.30
2023-05-01T17:56:28.676Z,2.35
2023-05-01T17:58:55.549Z,1.60
2023-05-01T18:01:22.424Z,2.42
2023-05-01T18:03:49.338Z,2.63
2023-05-01T18:06:16.743Z,1.45
2023-05-01T18:08:43.585Z,1.30
2023-05-01T18:11:10.335Z,1.23
2023-05-01T18:13:40.609Z,2.10
2023-05-01T18:16:07.444Z,2.42
2023-05-01T18:18:34.278Z,1.05
2023-05-01T18:21:01.002Z,1.63
2023-05-01T18:23:27.918Z,1.88
2023-05-01T18:25:55.860Z,1.13
2023-05-01T18:28:23.076Z,2.75
2023-05-01T18:30:50.090Z,0.80
2023-05-01T18:33:17.991Z,1.92
2023-05-01T18:35:44.732Z,3.03
2023-05-01T18:38:12.255Z,2.03
2023-05-01T18:40:39.354Z,1.90
2023-05-01T18:43:06.146Z,1.27
2023-05-01T18:45:32.901Z,1.20
2023-05-01T18:48:00.686Z,2.25
2023-05-01T18:50:27.648Z,3.03
2023-05-01T18:52:54.391Z,1.98
2023-05-01T18:55:21.142Z,1.58
2023-05-01T18:57:48.671Z,1.17
2023-05-01T19:00:17.568Z,1.67
2023-05-01T19:02:51.277Z,2.42
2023-05-01T19:05:18.598Z,2.38
2023-05-01T19:07:45.346Z,2.00
2023-05-01T19:10:12.193Z,1.23
2023-05-01T19:12:39.427Z,3.28
2023-05-01T19:15:06.576Z,2.20
2023-05-01T19:17:33.992Z,5.18
2023-05-01T19:20:01.058Z,11.00
2023-05-01T19:22:28.082Z,1.50
2023-05-01T19:24:54.761Z,3.30
2023-05-01T19:27:21.456Z,1.67
2023-05-01T19:29:48.144Z,3.70
2023-05-01T19:32:15.089Z,2.20
2023-05-01T19:34:41.990Z,4.43
2023-05-01T19:37:08.783Z,2.85
2023-05-01T19:39:35.576Z,1.83
2023-05-01T19:42:03.297Z,2.03
2023-05-01T19:44:30.063Z,2.78
2023-05-01T19:46:56.800Z,2.40
2023-05-01T19:49:24.991Z,2.70
2023-05-01T19:51:53.429Z,2.25
2023-05-01T19:54:22.314Z,1.33
2023-05-01T19:56:51.579Z,4.15
2023-05-01T19:59:18.996Z,3.75
2023-05-01T20:01:46.151Z,1.80
2023-05-01T20:04:13.267Z,2.38
2023-05-01T20:06:40.098Z,3.45
2023-05-01T20:09:07.344Z,2.60
2023-05-01T20:11:34.103Z,1.48
2023-05-01T20:14:02.136Z,2.90
2023-05-01T20:16:31.327Z,4.00
2023-05-01T20:18:58.130Z,9.23
2023-05-01T20:21:24.960Z,4.57
2023-05-01T20:23:52.379Z,6.35
2023-05-01T20:26:19.118Z,2.08
2023-05-01T20:28:46.756Z,3.78
2023-05-01T20:31:13.851Z,4.43
2023-05-01T20:33:40.726Z,2.50
2023-05-01T20:36:07.593Z,4.38
2023-05-01T20:38:41.136Z,1.98
2023-05-01T20:41:07.900Z,4.20
2023-05-01T20:43:34.653Z,2.28
2023-05-01T20:46:01.586Z,2.10
2023-05-01T20:48:28.513Z,4.35
2023-05-01T20:50:55.305Z,3.60
2023-05-01T20:53:22.128Z,2.45
2023-05-01T20:55:50.055Z,3.03
2023-05-01T20:58:16.961Z,1.95
2023-05-01T21:00:44.222Z,1.52
2023-05-01T21:03:11.646Z,4.07
2023-05-01T21:05:38.477Z,2.05
2023-05-01T21:08:05.293Z,2.20
2023-05-01T21:10:32.796Z,2.58
2023-05-01T21:13:00.164Z,4.28
2023-05-01T21:15:27.624Z,2.63
2023-05-01T21:17:54.490Z,5.07
2023-05-01T21:20:41.074Z,1.23
2023-05-01T21:23:08.189Z,5.50
2023-05-01T21:25:35.070Z,1.75
2023-05-01T21:28:05.077Z,4.63
2023-05-01T21:30:34.346Z,3.17
2023-05-01T21:33:04.070Z,1.50
2023-05-01T21:35:31.292Z,3.97
2023-05-01T21:37:58.890Z,0.98
2023-05-01T21:40:26.888Z,0.65
2023-05-01T21:42:54.644Z,1.40
2023-05-01T21:45:21.824Z,4.20
2023-05-01T21:47:51.459Z,1.92
2023-05-01T21:50:21.049Z,2.80
2023-05-01T21:52:49.697Z,4.47
2023-05-01T21:55:25.985Z,2.40
2023-05-01T21:57:56.000Z,1.13
2023-05-01T22:00:22.839Z,2.65
2023-05-01T22:02:51.235Z,4.43
2023-05-01T22:05:22.427Z,3.08
2023-05-01T22:07:51.969Z,3.28
2023-05-01T22:10:19.737Z,2.08
2023-05-01T22:12:49.353Z,1.17
2023-05-01T22:15:16.665Z,1.73
2023-05-01T22:17:44.292Z,3.53
2023-05-01T22:20:11.513Z,2.45
2023-05-01T22:22:40.297Z,4.95
2023-05-01T22:25:08.594Z,2.90
2023-05-01T22:27:35.739Z,1.63
2023-05-01T22:30:04.066Z,1.80
2023-05-01T22:32:31.169Z,2.25
2023-05-01T22:34:58.010Z,2.28
2023-05-01T22:37:25.669Z,1.63
2023-05-01T22:39:55.683Z,2.67
2023-05-01T22:42:22.939Z,1.90
2023-05-01T22:44:49.680Z,1.00
2023-05-01T22:47:16.990Z,1.63
2023-05-01T22:49:43.750Z,1.00
2023-05-01T22:52:10.742Z,3.72
2023-05-01T22:54:37.598Z,2.92
2023-05-01T22:57:04.393Z,2.35
2023-05-01T22:59:31.539Z,4.07
2023-05-01T23:01:58.484Z,4.82
2023-05-01T23:04:25.432Z,1.33
2023-05-01T23:06:52.568Z,1.85
2023-05-01T23:09:19.398Z,2.83
2023-05-01T23:11:47.804Z,2.22
2023-05-01T23:14:18.258Z,3.03
2023-05-01T23:16:45.226Z,1.35
2023-05-01T23:19:23.860Z,3.95
2023-05-01T23:22:05.638Z,4.00
2023-05-01T23:24:40.580Z,2.13
2023-05-01T23:27:08.372Z,1.90
2023-05-01T23:29:35.709Z,1.25
2023-05-01T23:32:02.710Z,2.17
2023-05-01T23:34:29.518Z,1.92
2023-05-01T23:36:56.327Z,3.22
2023-05-01T23:39:23.135Z,3.00
2023-05-01T23:41:50.556Z,1.05
2023-05-01T23:44:17.345Z,1.55
2023-05-01T23:46:44.270Z,3.47
2023-05-01T23:49:11.531Z,2.55
2023-05-01T23:51:38.557Z,1.27
2023-05-01T23:54:05.561Z,3.17
2023-05-01T23:56:32.562Z,1.58
2023-05-01T23:58:59.444Z,1.33
